• Join FlightAware (Why Join?)
  • Login
  • US Flag 
04:48PM EDT


 

Airport Tracker/Info


-or-


 

Live Flight TrackerFlight Track Log ✈ EJA922 ✈ 16-Dec-2013 ✈ KBCT - KBNA

Flight Track Log - Related Links

Times and Time Zones

All times are in EST time to prevent confusion due to time zone crossing. See the EJA922 flight status page for this flight to view local times or setup timezone preferences in your user account.

Time Position Orientation Groundspeed Altitude Reporting Facility
EST Latitude Longitude Course Direction KTS MPH feet Rate Location/Type
02:12PM 26.4381 -80.0586 310° West 230 265 3,500  Level Miami Center
02:13PM 26.4786 -80.1131 310° West 247 284 6,600 3,120 Climbing Miami Center
02:14PM 26.4894 -80.1922 279° West 228 262 9,800 1,920 Climbing Miami Center
02:15PM 26.5039 -80.2808 280° West 268 308 10,500 1,800 Climbing Miami Center
02:16PM 26.5925 -80.3297 334° Northwest 307 353 13,400 2,460 Climbing Miami Center
02:17PM 26.6878 -80.3697 339° North 333 383 15,500 2,160 Climbing Miami Center
02:18PM 26.7933 -80.4103 341° North 387 445 17,800 2,160 Climbing Miami Center
02:19PM 26.8944 -80.4528 339° North 392 451 19,900 1,740 Climbing Miami Center
02:20PM 27.0042 -80.4914 343° North 397 457 21,300 1,440 Climbing Miami Center
02:21PM 27.1181 -80.5297 343° North 408 470 22,800 1,500 Climbing Miami Center
02:22PM 27.2342 -80.5686 343° North 421 484 24,400 1,620 Climbing Miami Center
02:23PM 27.3522 -80.6075 344° North 433 498 26,100 1,500 Climbing Miami Center
02:24PM 27.4722 -80.6464 344° North 439 505 27,500 1,380 Climbing Miami Center
02:25PM 27.5964 -80.6881 343° North 444 511 28,900 1,380 Climbing Miami Center
02:26PM 27.7139 -80.7364 340° North 449 517 30,300 1,320 Climbing Miami Center
02:27PM 27.7992 -80.8286 316° Northwest 431 496 31,600 1,500 Climbing Miami Center
02:28PM 27.8800 -80.9278 313° West 426 490 33,400 1,920 Climbing Miami Center
02:29PM 27.9544 -81.0172 313° West 421 484 35,500 2,040 Climbing Miami Center
02:30PM 28.0392 -81.1239 312° West 427 491 37,500 2,100 Climbing Miami Center
02:31PM 28.1075 -81.2089 312° West 415 478 39,700 1,920 Climbing Miami Center
02:32PM 28.1858 -81.3036 313° West 415 478 41,400 1,560 Climbing Miami Center
02:33PM 28.2644 -81.3986 313° West 413 475 42,700 840 Climbing Jacksonville Center
02:34PM 28.3406 -81.4869 314° West 408 470 43,000 120 Climbing Jacksonville Center
02:35PM 28.4231 -81.5897 312° West 415 478 43,000  Level Jacksonville Center
02:36PM 28.5033 -81.6925 312° West 427 491 43,000  Level Jacksonville Center
02:37PM 28.5919 -81.7931 315° West 440 506 43,000  Level Jacksonville Center
02:38PM 28.6761 -81.8939 314° West 440 506 43,000  Level Jacksonville Center
02:39PM 28.7603 -81.9950 314° West 439 505 43,000  Level Jacksonville Center
02:40PM 28.8797 -82.0650 333° Northwest 458 527 43,000  Level Jacksonville Center
02:41PM 28.9908 -82.1139 339° North 466 536 43,000  Level Jacksonville Center
02:42PM 29.1164 -82.1747 337° Northwest 473 544 43,000  Level Jacksonville Center
02:43PM 29.2419 -82.2333 338° Northwest 483 556 43,000  Level Jacksonville Center
02:44PM 29.3694 -82.2944 337° Northwest 488 562 43,000  Level Jacksonville Center
02:45PM 29.4972 -82.3556 337° Northwest 488 562 43,000  Level Jacksonville Center
02:46PM 29.6225 -82.4147 338° Northwest 494 568 43,000  Level Jacksonville Center
02:47PM 29.7481 -82.4764 337° Northwest 494 568 43,000  Level Jacksonville Center
02:48PM 29.8756 -82.5356 338° Northwest 494 568 43,000  Level Jacksonville Center
02:49PM 29.9989 -82.5975 336° Northwest 494 568 43,000  Level Jacksonville Center
02:50PM 30.1264 -82.6597 337° Northwest 494 568 43,000  Level Jacksonville Center
02:51PM 30.2517 -82.7194 338° Northwest 489 563 43,000  Level Jacksonville Center
02:52PM 30.3917 -82.7867 338° Northwest 489 563 43,000  Level Jacksonville Center
02:53PM 30.5192 -82.8492 337° Northwest 489 563 43,000  Level Jacksonville Center
02:54PM 30.6422 -82.9142 336° Northwest 489 563 43,000  Level Jacksonville Center
02:55PM 30.7717 -82.9772 337° Northwest 489 563 43,000  Level Jacksonville Center
02:56PM 30.8867 -83.0331 337° Northwest 494 568 43,000  Level Jacksonville Center
02:57PM 31.0139 -83.0986 336° Northwest 499 574 43,000  Level Jacksonville Center
02:59PM 31.2911 -83.2369 337° Northwest 497 572 43,000  Level Atlanta Center
03:00PM 31.4189 -83.3017 337° Northwest 497 572 43,000  Level Atlanta Center
03:01PM 31.5464 -83.3639 337° Northwest 497 572 43,000  Level Atlanta Center
03:02PM 31.6719 -83.4264 337° Northwest 497 572 43,000  Level Atlanta Center
03:03PM 31.8017 -83.4889 338° Northwest 492 566 43,000  Level Atlanta Center
03:04PM 31.9356 -83.5714 332° Northwest 498 573 43,000  Level Atlanta Center
03:05PM 32.0589 -83.6369 336° Northwest 486 559 43,000  Level Atlanta Center
03:06PM 32.1844 -83.7028 336° Northwest 486 559 43,000  Level Atlanta Center
03:07PM 32.3078 -83.7661 337° Northwest 486 559 43,000  Level Atlanta Center
03:08PM 32.4331 -83.8322 336° Northwest 486 559 43,000  Level Atlanta Center
03:09PM 32.5564 -83.8958 337° Northwest 481 554 43,000  Level Atlanta Center
03:10PM 32.6817 -83.9597 337° Northwest 481 554 43,000  Level Atlanta Center
03:11PM 32.8028 -84.0264 335° Northwest 481 554 43,000  Level Atlanta Center
03:12PM 32.9281 -84.0908 337° Northwest 481 554 43,000  Level Atlanta Center
03:13PM 33.0511 -84.1553 336° Northwest 481 554 43,000  Level Atlanta Center
03:14PM 33.1700 -84.2225 335° Northwest 475 547 43,000  Level Atlanta Center
03:15PM 33.2908 -84.2850 337° Northwest 475 547 43,000  Level Atlanta Center
03:16PM 33.4139 -84.3500 336° Northwest 480 552 43,000  Level Atlanta Center
03:17PM 33.5369 -84.4150 336° Northwest 480 552 43,000  Level Atlanta Center
03:18PM 33.6475 -84.4706 337° Northwest 480 552 43,000  Level Atlanta Center
03:19PM 33.7828 -84.5436 336° Northwest 485 558 43,000  Level Atlanta Center
03:20PM 33.9036 -84.6094 336° Northwest 480 552 43,000  Level Atlanta Center
03:21PM 34.0264 -84.6756 336° Northwest 480 552 43,000 -300 Level Atlanta Center
03:22PM 34.1408 -84.7339 337° Northwest 490 564 42,500 -780 Descending Atlanta Center
03:23PM 34.2678 -84.8031 336° Northwest 479 551 41,500 -1,320 Descending Atlanta Center
03:24PM 34.3883 -84.8669 336° Northwest 474 545 39,900 -2,160 Descending Atlanta Center
03:25PM 34.5111 -84.9361 335° Northwest 480 552 37,200 -2,700 Descending Atlanta Center
03:26PM 34.6317 -85.0006 336° Northwest 480 552 34,500 -1,620 Descending Atlanta Center
03:27PM 34.7292 -85.0750 328° Northwest 474 545 34,000 -300 Descending Atlanta Center
03:28PM 34.8453 -85.1625 328° Northwest 474 545 34,000 -120 Level Atlanta Center
03:29PM 34.9569 -85.2503 327° Northwest 479 551 33,800 -900 Descending Atlanta Center
03:30PM 35.0667 -85.3381 327° Northwest 474 545 32,300 -1,800 Descending Atlanta Center
03:32PM 35.2100 -85.4683 323° Northwest 471 542 29,700 -2,220 Descending Memphis Center
03:33PM 35.2981 -85.5828 313° West 460 529 27,100 -2,460 Descending Memphis Center
03:34PM 35.3858 -85.6944 314° West 454 522 24,700 -2,280 Descending Memphis Center
03:35PM 35.4636 -85.7961 313° West 421 484 22,500 -2,400 Descending Memphis Center
03:36PM 35.5378 -85.8911 314° West 394 453 19,800 -2,520 Descending Memphis Center
03:37PM 35.6175 -85.9950 313° West 369 425 17,300 -2,820 Descending Memphis Center
03:38PM 35.6811 -86.0811 312° West 343 395 14,000 -2,400 Descending Memphis Center
03:39PM 35.7322 -86.1508 312° West 283 326 12,400 -1,260 Descending Memphis Center
03:40PM 35.7781 -86.2114 313° West 250 288 11,400 -960 Descending Memphis Center
03:41PM 35.8203 -86.2683 312° West 230 265 10,500 -960 Descending Memphis Center
03:42PM 35.8689 -86.3303 314° West 216 249 9,500 -960 Descending Memphis Center
03:43PM 35.9125 -86.3858 314° West 220 253 8,600 -900 Descending Memphis Center
03:44PM 35.9525 -86.4406 312° West 217 250 7,700 -840 Descending Memphis Center
03:45PM 35.9933 -86.4936 314° West 212 244 6,900 -780 Descending Memphis Center
03:46PM 36.0328 -86.5456 313° West 208 239 6,100 -780 Descending Memphis Center
03:47PM 36.0844 -86.5694 340° North 216 249 5,300 -1,020 Descending Memphis Center
03:48PM 36.1489 -86.5422 19° North 242 278 4,100 -1,140 Descending Memphis Center
03:49PM 36.2156 -86.5169 17° North 228 262 3,000 -1,020 Descending Memphis Center
03:50PM 36.2089 -86.5786 262° West 210 242 2,000 -780 Descending Memphis Center
03:51PM 36.1853 -86.6297 240° Southwest 184 212 1,400 -540 Descending Memphis Center
03:52PM 36.1561 -86.6511 211° Southwest 144 166 1,000 -360 Descending Memphis Center
03:53PM 36.1225 -86.6658 199° South 134 154 700 -300 Descending Memphis Center
03:55PM 36.1167 -86.6667 292° West  Level FlightAware Approximate